sensor_id;sensor_type;location;lat;lon;timestamp;P1;durP1;ratioP1;P2;durP2;ratioP2
47309;SDS011;33046;52.270;6.832;2023-05-10T00:01:40;3.85;;;3.55;;
47309;SDS011;33046;52.270;6.832;2023-05-10T00:03:47;2.97;;;2.63;;
47309;SDS011;33046;52.270;6.832;2023-05-10T00:05:53;2.38;;;2.17;;
47309;SDS011;33046;52.270;6.832;2023-05-10T00:08:00;2.75;;;2.55;;
47309;SDS011;33046;52.270;6.832;2023-05-10T00:10:07;3.22;;;2.50;;
47309;SDS011;33046;52.270;6.832;2023-05-10T00:12:15;2.40;;;2.20;;
47309;SDS011;33046;52.270;6.832;2023-05-10T00:14:21;2.33;;;2.13;;
47309;SDS011;33046;52.270;6.832;2023-05-10T00:16:29;2.40;;;2.20;;
47309;SDS011;33046;52.270;6.832;2023-05-10T00:18:36;2.28;;;2.08;;
47309;SDS011;33046;52.270;6.832;2023-05-10T00:20:43;2.08;;;1.88;;
47309;SDS011;33046;52.270;6.832;2023-05-10T00:22:50;10.10;;;2.10;;
47309;SDS011;33046;52.270;6.832;2023-05-10T00:24:57;3.00;;;2.80;;
47309;SDS011;33046;52.270;6.832;2023-05-10T00:27:03;2.78;;;2.58;;
47309;SDS011;33046;52.270;6.832;2023-05-10T00:29:10;3.15;;;2.30;;
47309;SDS011;33046;52.270;6.832;2023-05-10T00:31:17;3.00;;;2.78;;
47309;SDS011;33046;52.270;6.832;2023-05-10T00:33:25;3.28;;;2.97;;
47309;SDS011;33046;52.270;6.832;2023-05-10T00:35:32;5.03;;;3.03;;
47309;SDS011;33046;52.270;6.832;2023-05-10T00:37:39;3.40;;;3.10;;
47309;SDS011;33046;52.270;6.832;2023-05-10T00:39:45;3.20;;;2.90;;
47309;SDS011;33046;52.270;6.832;2023-05-10T00:41:52;3.92;;;3.63;;
47309;SDS011;33046;52.270;6.832;2023-05-10T00:43:59;3.92;;;3.63;;
47309;SDS011;33046;52.270;6.832;2023-05-10T00:46:06;3.88;;;3.33;;
47309;SDS011;33046;52.270;6.832;2023-05-10T00:48:13;4.10;;;3.70;;
47309;SDS011;33046;52.270;6.832;2023-05-10T00:50:22;3.85;;;3.55;;
47309;SDS011;33046;52.270;6.832;2023-05-10T00:52:29;4.25;;;3.85;;
47309;SDS011;33046;52.270;6.832;2023-05-10T00:54:37;4.15;;;3.75;;
47309;SDS011;33046;52.270;6.832;2023-05-10T00:56:44;5.15;;;4.75;;
47309;SDS011;33046;52.270;6.832;2023-05-10T00:58:51;5.05;;;4.20;;
47309;SDS011;33046;52.270;6.832;2023-05-10T01:00:58;5.13;;;4.07;;
47309;SDS011;33046;52.270;6.832;2023-05-10T01:03:05;4.25;;;3.85;;
47309;SDS011;33046;52.270;6.832;2023-05-10T01:05:12;4.10;;;3.80;;
47309;SDS011;33046;52.270;6.832;2023-05-10T01:07:21;4.20;;;3.90;;
47309;SDS011;33046;52.270;6.832;2023-05-10T01:09:27;4.40;;;4.10;;
47309;SDS011;33046;52.270;6.832;2023-05-10T01:11:34;4.15;;;3.75;;
47309;SDS011;33046;52.270;6.832;2023-05-10T01:13:42;4.18;;;3.88;;
47309;SDS011;33046;52.270;6.832;2023-05-10T01:15:53;4.28;;;3.78;;
47309;SDS011;33046;52.270;6.832;2023-05-10T01:18:00;4.25;;;3.08;;
47309;SDS011;33046;52.270;6.832;2023-05-10T01:20:09;4.10;;;3.25;;
47309;SDS011;33046;52.270;6.832;2023-05-10T01:22:34;3.10;;;2.72;;
47309;SDS011;33046;52.270;6.832;2023-05-10T01:25:03;3.38;;;3.10;;
47309;SDS011;33046;52.270;6.832;2023-05-10T01:27:45;3.55;;;3.25;;
47309;SDS011;33046;52.270;6.832;2023-05-10T01:32:49;3.08;;;2.78;;
47309;SDS011;33046;52.270;6.832;2023-05-10T01:35:03;3.15;;;2.85;;
47309;SDS011;33046;52.270;6.832;2023-05-10T01:37:13;5.25;;;3.85;;
47309;SDS011;33046;52.270;6.832;2023-05-10T01:41:39;3.92;;;3.60;;
47309;SDS011;33046;52.270;6.832;2023-05-10T01:43:55;4.63;;;4.22;;
47309;SDS011;33046;52.270;6.832;2023-05-10T01:46:14;4.13;;;3.83;;
47309;SDS011;33046;52.270;6.832;2023-05-10T01:48:28;4.22;;;3.55;;
47309;SDS011;33046;52.270;6.832;2023-05-10T01:50:36;4.90;;;4.50;;
47309;SDS011;33046;52.270;6.832;2023-05-10T01:52:47;4.45;;;4.05;;
47309;SDS011;33046;52.270;6.832;2023-05-10T01:55:00;4.82;;;4.43;;
47309;SDS011;33046;52.270;6.832;2023-05-10T01:57:08;5.53;;;5.10;;
47309;SDS011;33046;52.270;6.832;2023-05-10T01:59:20;5.30;;;4.90;;
47309;SDS011;33046;52.270;6.832;2023-05-10T02:01:27;5.30;;;4.80;;
47309;SDS011;33046;52.270;6.832;2023-05-10T02:03:35;5.30;;;4.90;;
47309;SDS011;33046;52.270;6.832;2023-05-10T02:05:44;5.43;;;4.93;;
47309;SDS011;33046;52.270;6.832;2023-05-10T02:07:54;6.43;;;5.88;;
47309;SDS011;33046;52.270;6.832;2023-05-10T02:10:02;4.97;;;4.57;;
47309;SDS011;33046;52.270;6.832;2023-05-10T02:12:12;5.10;;;4.70;;
47309;SDS011;33046;52.270;6.832;2023-05-10T02:14:20;6.03;;;5.53;;
47309;SDS011;33046;52.270;6.832;2023-05-10T02:16:28;5.35;;;4.85;;
47309;SDS011;33046;52.270;6.832;2023-05-10T02:18:37;5.70;;;5.20;;
47309;SDS011;33046;52.270;6.832;2023-05-10T02:20:46;5.90;;;5.40;;
47309;SDS011;33046;52.270;6.832;2023-05-10T02:22:54;5.70;;;5.20;;
47309;SDS011;33046;52.270;6.832;2023-05-10T02:25:03;6.20;;;5.70;;
47309;SDS011;33046;52.270;6.832;2023-05-10T02:27:10;6.00;;;5.53;;
47309;SDS011;33046;52.270;6.832;2023-05-10T02:29:18;6.10;;;5.60;;
47309;SDS011;33046;52.270;6.832;2023-05-10T02:31:26;6.22;;;5.72;;
47309;SDS011;33046;52.270;6.832;2023-05-10T02:33:33;6.10;;;5.60;;
47309;SDS011;33046;52.270;6.832;2023-05-10T02:35:42;6.25;;;5.75;;
47309;SDS011;33046;52.270;6.832;2023-05-10T02:37:49;7.03;;;6.45;;
47309;SDS011;33046;52.270;6.832;2023-05-10T02:39:57;7.32;;;6.72;;
47309;SDS011;33046;52.270;6.832;2023-05-10T02:42:05;7.63;;;6.93;;
47309;SDS011;33046;52.270;6.832;2023-05-10T02:44:12;7.72;;;6.95;;
47309;SDS011;33046;52.270;6.832;2023-05-10T02:46:21;6.07;;;5.57;;
47309;SDS011;33046;52.270;6.832;2023-05-10T02:48:28;7.28;;;6.63;;
47309;SDS011;33046;52.270;6.832;2023-05-10T02:50:35;7.00;;;6.40;;
47309;SDS011;33046;52.270;6.832;2023-05-10T02:52:47;7.28;;;6.68;;
47309;SDS011;33046;52.270;6.832;2023-05-10T02:54:58;8.30;;;7.47;;
47309;SDS011;33046;52.270;6.832;2023-05-10T02:57:08;7.90;;;7.20;;
47309;SDS011;33046;52.270;6.832;2023-05-10T02:59:19;8.02;;;7.32;;
47309;SDS011;33046;52.270;6.832;2023-05-10T03:01:26;6.97;;;6.38;;
47309;SDS011;33046;52.270;6.832;2023-05-10T03:03:33;7.35;;;6.65;;
47309;SDS011;33046;52.270;6.832;2023-05-10T03:05:40;7.20;;;6.60;;
47309;SDS011;33046;52.270;6.832;2023-05-10T03:07:48;10.68;;;7.10;;
47309;SDS011;33046;52.270;6.832;2023-05-10T03:09:55;7.50;;;6.72;;
47309;SDS011;33046;52.270;6.832;2023-05-10T03:12:04;7.50;;;6.80;;
47309;SDS011;33046;52.270;6.832;2023-05-10T03:14:21;7.93;;;7.28;;
47309;SDS011;33046;52.270;6.832;2023-05-10T03:16:39;7.95;;;7.35;;
47309;SDS011;33046;52.270;6.832;2023-05-10T03:18:50;7.85;;;7.15;;
47309;SDS011;33046;52.270;6.832;2023-05-10T03:21:03;7.03;;;6.43;;
47309;SDS011;33046;52.270;6.832;2023-05-10T03:23:17;8.80;;;7.72;;
47309;SDS011;33046;52.270;6.832;2023-05-10T03:25:28;8.95;;;8.05;;
47309;SDS011;33046;52.270;6.832;2023-05-10T03:27:38;8.48;;;7.78;;
47309;SDS011;33046;52.270;6.832;2023-05-10T03:29:47;8.57;;;7.80;;
47309;SDS011;33046;52.270;6.832;2023-05-10T03:31:55;9.90;;;8.80;;
47309;SDS011;33046;52.270;6.832;2023-05-10T03:34:03;10.05;;;9.15;;
47309;SDS011;33046;52.270;6.832;2023-05-10T03:36:10;9.68;;;8.80;;
47309;SDS011;33046;52.270;6.832;2023-05-10T03:38:18;10.82;;;9.70;;
47309;SDS011;33046;52.270;6.832;2023-05-10T03:40:25;10.73;;;9.73;;
47309;SDS011;33046;52.270;6.832;2023-05-10T03:42:33;10.55;;;9.55;;
47309;SDS011;33046;52.270;6.832;2023-05-10T03:44:39;10.93;;;9.82;;
47309;SDS011;33046;52.270;6.832;2023-05-10T03:46:47;12.30;;;9.68;;
47309;SDS011;33046;52.270;6.832;2023-05-10T03:48:54;11.95;;;10.75;;
47309;SDS011;33046;52.270;6.832;2023-05-10T03:51:01;13.65;;;12.25;;
47309;SDS011;33046;52.270;6.832;2023-05-10T03:53:07;13.65;;;12.45;;
47309;SDS011;33046;52.270;6.832;2023-05-10T03:55:16;14.55;;;13.05;;
47309;SDS011;33046;52.270;6.832;2023-05-10T03:57:23;14.90;;;13.35;;
47309;SDS011;33046;52.270;6.832;2023-05-10T03:59:30;14.32;;;12.90;;
47309;SDS011;33046;52.270;6.832;2023-05-10T04:01:37;19.95;;;15.45;;
47309;SDS011;33046;52.270;6.832;2023-05-10T04:03:44;17.65;;;14.98;;
47309;SDS011;33046;52.270;6.832;2023-05-10T04:05:57;17.23;;;15.43;;
47309;SDS011;33046;52.270;6.832;2023-05-10T04:08:05;17.23;;;15.32;;
47309;SDS011;33046;52.270;6.832;2023-05-10T04:10:12;19.20;;;15.98;;
47309;SDS011;33046;52.270;6.832;2023-05-10T04:12:21;18.27;;;16.40;;
47309;SDS011;33046;52.270;6.832;2023-05-10T04:14:27;18.75;;;16.88;;
47309;SDS011;33046;52.270;6.832;2023-05-10T04:16:34;19.95;;;17.63;;
47309;SDS011;33046;52.270;6.832;2023-05-10T04:18:41;18.70;;;16.55;;
47309;SDS011;33046;52.270;6.832;2023-05-10T04:20:48;19.00;;;16.75;;
47309;SDS011;33046;52.270;6.832;2023-05-10T04:22:54;19.70;;;17.60;;
47309;SDS011;33046;52.270;6.832;2023-05-10T04:25:01;19.58;;;17.45;;
47309;SDS011;33046;52.270;6.832;2023-05-10T04:27:08;22.08;;;18.70;;
47309;SDS011;33046;52.270;6.832;2023-05-10T04:29:16;20.40;;;18.27;;
47309;SDS011;33046;52.270;6.832;2023-05-10T04:31:23;21.75;;;19.45;;
47309;SDS011;33046;52.270;6.832;2023-05-10T04:33:30;22.65;;;20.02;;
47309;SDS011;33046;52.270;6.832;2023-05-10T04:35:37;23.20;;;18.75;;
47309;SDS011;33046;52.270;6.832;2023-05-10T04:37:44;22.13;;;19.63;;
47309;SDS011;33046;52.270;6.832;2023-05-10T04:39:50;25.50;;;20.55;;
47309;SDS011;33046;52.270;6.832;2023-05-10T04:41:57;23.67;;;18.10;;
47309;SDS011;33046;52.270;6.832;2023-05-10T04:44:04;24.38;;;19.10;;
47309;SDS011;33046;52.270;6.832;2023-05-10T04:46:12;28.17;;;20.90;;
47309;SDS011;33046;52.270;6.832;2023-05-10T04:48:19;24.42;;;21.15;;
47309;SDS011;33046;52.270;6.832;2023-05-10T04:50:25;24.40;;;19.67;;
47309;SDS011;33046;52.270;6.832;2023-05-10T04:52:32;27.95;;;22.13;;
47309;SDS011;33046;52.270;6.832;2023-05-10T04:54:39;26.27;;;20.63;;
47309;SDS011;33046;52.270;6.832;2023-05-10T04:56:46;31.30;;;23.02;;
47309;SDS011;33046;52.270;6.832;2023-05-10T04:58:53;27.10;;;21.40;;
47309;SDS011;33046;52.270;6.832;2023-05-10T05:01:04;28.15;;;22.55;;
47309;SDS011;33046;52.270;6.832;2023-05-10T05:03:13;29.52;;;23.08;;
47309;SDS011;33046;52.270;6.832;2023-05-10T05:05:20;33.63;;;23.75;;
47309;SDS011;33046;52.270;6.832;2023-05-10T05:07:27;28.50;;;24.30;;
47309;SDS011;33046;52.270;6.832;2023-05-10T05:09:33;32.42;;;24.80;;
47309;SDS011;33046;52.270;6.832;2023-05-10T05:11:40;33.42;;;24.75;;
47309;SDS011;33046;52.270;6.832;2023-05-10T05:13:47;33.85;;;25.63;;
47309;SDS011;33046;52.270;6.832;2023-05-10T05:15:54;33.95;;;25.50;;
47309;SDS011;33046;52.270;6.832;2023-05-10T05:18:00;35.90;;;28.00;;
47309;SDS011;33046;52.270;6.832;2023-05-10T05:20:09;35.67;;;28.05;;
47309;SDS011;33046;52.270;6.832;2023-05-10T05:22:16;31.63;;;26.15;;
47309;SDS011;33046;52.270;6.832;2023-05-10T05:24:24;34.55;;;25.80;;
47309;SDS011;33046;52.270;6.832;2023-05-10T05:26:31;38.90;;;26.17;;
47309;SDS011;33046;52.270;6.832;2023-05-10T05:28:38;37.60;;;27.27;;
47309;SDS011;33046;52.270;6.832;2023-05-10T05:30:45;35.78;;;28.25;;
47309;SDS011;33046;52.270;6.832;2023-05-10T05:32:51;40.83;;;29.10;;
47309;SDS011;33046;52.270;6.832;2023-05-10T05:34:58;37.97;;;28.98;;
47309;SDS011;33046;52.270;6.832;2023-05-10T05:37:07;36.20;;;28.38;;
47309;SDS011;33046;52.270;6.832;2023-05-10T05:39:18;35.30;;;28.30;;
47309;SDS011;33046;52.270;6.832;2023-05-10T05:41:25;36.90;;;29.45;;
47309;SDS011;33046;52.270;6.832;2023-05-10T05:43:31;37.88;;;29.67;;
47309;SDS011;33046;52.270;6.832;2023-05-10T05:45:38;40.33;;;30.70;;
47309;SDS011;33046;52.270;6.832;2023-05-10T05:47:45;43.67;;;29.80;;
47309;SDS011;33046;52.270;6.832;2023-05-10T05:49:52;38.72;;;28.27;;
47309;SDS011;33046;52.270;6.832;2023-05-10T05:51:58;40.78;;;30.20;;
47309;SDS011;33046;52.270;6.832;2023-05-10T05:54:07;35.58;;;29.27;;
47309;SDS011;33046;52.270;6.832;2023-05-10T05:56:14;35.97;;;28.10;;
47309;SDS011;33046;52.270;6.832;2023-05-10T05:58:21;40.78;;;31.30;;
47309;SDS011;33046;52.270;6.832;2023-05-10T06:00:28;40.35;;;31.13;;
47309;SDS011;33046;52.270;6.832;2023-05-10T06:02:34;38.25;;;28.23;;
47309;SDS011;33046;52.270;6.832;2023-05-10T06:04:41;36.47;;;28.40;;
47309;SDS011;33046;52.270;6.832;2023-05-10T06:06:49;37.28;;;29.60;;
47309;SDS011;33046;52.270;6.832;2023-05-10T06:08:56;36.85;;;29.40;;
47309;SDS011;33046;52.270;6.832;2023-05-10T06:11:04;38.33;;;29.52;;
47309;SDS011;33046;52.270;6.832;2023-05-10T06:13:11;36.05;;;29.85;;
47309;SDS011;33046;52.270;6.832;2023-05-10T06:15:18;40.13;;;30.73;;
47309;SDS011;33046;52.270;6.832;2023-05-10T06:17:25;33.95;;;27.92;;
47309;SDS011;33046;52.270;6.832;2023-05-10T06:19:31;39.75;;;30.40;;
47309;SDS011;33046;52.270;6.832;2023-05-10T06:21:38;35.50;;;26.77;;
47309;SDS011;33046;52.270;6.832;2023-05-10T06:23:45;38.28;;;29.77;;
47309;SDS011;33046;52.270;6.832;2023-05-10T06:25:52;34.17;;;28.75;;
47309;SDS011;33046;52.270;6.832;2023-05-10T06:28:00;37.65;;;26.80;;
47309;SDS011;33046;52.270;6.832;2023-05-10T06:30:07;31.88;;;26.38;;
47309;SDS011;33046;52.270;6.832;2023-05-10T06:32:17;32.45;;;25.77;;
47309;SDS011;33046;52.270;6.832;2023-05-10T06:34:24;33.33;;;27.23;;
47309;SDS011;33046;52.270;6.832;2023-05-10T06:36:31;32.13;;;27.27;;
47309;SDS011;33046;52.270;6.832;2023-05-10T06:38:38;33.38;;;27.23;;
47309;SDS011;33046;52.270;6.832;2023-05-10T06:40:45;33.50;;;26.13;;
47309;SDS011;33046;52.270;6.832;2023-05-10T06:42:51;33.90;;;25.40;;
47309;SDS011;33046;52.270;6.832;2023-05-10T06:45:00;31.65;;;27.15;;
47309;SDS011;33046;52.270;6.832;2023-05-10T06:47:06;31.35;;;25.30;;
47309;SDS011;33046;52.270;6.832;2023-05-10T06:49:13;32.65;;;26.63;;
47309;SDS011;33046;52.270;6.832;2023-05-10T06:51:20;33.35;;;27.17;;
47309;SDS011;33046;52.270;6.832;2023-05-10T06:53:27;33.60;;;26.33;;
47309;SDS011;33046;52.270;6.832;2023-05-10T06:55:33;36.53;;;27.67;;
47309;SDS011;33046;52.270;6.832;2023-05-10T06:57:40;35.20;;;28.42;;
47309;SDS011;33046;52.270;6.832;2023-05-10T06:59:47;31.73;;;25.67;;
47309;SDS011;33046;52.270;6.832;2023-05-10T07:01:55;32.75;;;25.30;;
47309;SDS011;33046;52.270;6.832;2023-05-10T07:04:02;34.35;;;26.65;;
47309;SDS011;33046;52.270;6.832;2023-05-10T07:06:08;34.40;;;25.83;;
47309;SDS011;33046;52.270;6.832;2023-05-10T07:08:21;33.60;;;25.10;;
47309;SDS011;33046;52.270;6.832;2023-05-10T07:10:27;35.13;;;26.10;;
47309;SDS011;33046;52.270;6.832;2023-05-10T07:12:34;32.58;;;25.20;;
47309;SDS011;33046;52.270;6.832;2023-05-10T07:14:41;32.95;;;25.80;;
47309;SDS011;33046;52.270;6.832;2023-05-10T07:16:48;30.05;;;25.10;;
47309;SDS011;33046;52.270;6.832;2023-05-10T07:18:56;30.27;;;25.35;;
47309;SDS011;33046;52.270;6.832;2023-05-10T07:21:03;33.50;;;26.10;;
47309;SDS011;33046;52.270;6.832;2023-05-10T07:23:09;33.70;;;25.85;;
47309;SDS011;33046;52.270;6.832;2023-05-10T07:25:16;30.48;;;25.15;;
47309;SDS011;33046;52.270;6.832;2023-05-10T07:27:23;33.92;;;25.52;;
47309;SDS011;33046;52.270;6.832;2023-05-10T07:29:30;33.45;;;26.10;;
47309;SDS011;33046;52.270;6.832;2023-05-10T07:31:37;30.15;;;24.42;;
47309;SDS011;33046;52.270;6.832;2023-05-10T07:33:44;33.45;;;26.38;;
47309;SDS011;33046;52.270;6.832;2023-05-10T07:35:52;32.83;;;26.05;;
47309;SDS011;33046;52.270;6.832;2023-05-10T07:37:59;28.42;;;23.08;;
47309;SDS011;33046;52.270;6.832;2023-05-10T07:40:06;30.92;;;25.63;;
47309;SDS011;33046;52.270;6.832;2023-05-10T07:42:14;32.53;;;24.85;;
47309;SDS011;33046;52.270;6.832;2023-05-10T07:44:20;30.92;;;25.67;;
47309;SDS011;33046;52.270;6.832;2023-05-10T07:46:27;31.27;;;24.13;;
47309;SDS011;33046;52.270;6.832;2023-05-10T07:48:34;33.78;;;23.95;;
47309;SDS011;33046;52.270;6.832;2023-05-10T07:50:41;31.98;;;24.90;;
47309;SDS011;33046;52.270;6.832;2023-05-10T07:52:49;31.45;;;23.33;;
47309;SDS011;33046;52.270;6.832;2023-05-10T07:54:56;28.40;;;23.23;;
47309;SDS011;33046;52.270;6.832;2023-05-10T07:57:03;27.92;;;21.50;;
47309;SDS011;33046;52.270;6.832;2023-05-10T07:59:09;29.60;;;21.48;;
47309;SDS011;33046;52.270;6.832;2023-05-10T08:01:17;27.48;;;21.05;;
47309;SDS011;33046;52.270;6.832;2023-05-10T08:03:24;29.05;;;20.88;;
47309;SDS011;33046;52.270;6.832;2023-05-10T08:05:31;26.40;;;20.98;;
47309;SDS011;33046;52.270;6.832;2023-05-10T08:07:39;29.33;;;22.55;;
47309;SDS011;33046;52.270;6.832;2023-05-10T08:09:47;28.77;;;22.90;;
47309;SDS011;33046;52.270;6.832;2023-05-10T08:11:54;25.67;;;19.52;;
47309;SDS011;33046;52.270;6.832;2023-05-10T08:14:00;29.13;;;21.20;;
47309;SDS011;33046;52.270;6.832;2023-05-10T08:16:07;26.73;;;19.95;;
47309;SDS011;33046;52.270;6.832;2023-05-10T08:18:14;29.02;;;22.65;;
47309;SDS011;33046;52.270;6.832;2023-05-10T08:20:21;28.48;;;21.98;;
47309;SDS011;33046;52.270;6.832;2023-05-10T08:22:28;30.27;;;22.60;;
47309;SDS011;33046;52.270;6.832;2023-05-10T08:24:35;33.20;;;23.95;;
47309;SDS011;33046;52.270;6.832;2023-05-10T08:26:43;27.92;;;20.65;;
47309;SDS011;33046;52.270;6.832;2023-05-10T08:28:49;26.20;;;19.92;;
47309;SDS011;33046;52.270;6.832;2023-05-10T08:30:56;29.27;;;21.70;;
47309;SDS011;33046;52.270;6.832;2023-05-10T08:33:03;29.17;;;22.08;;
47309;SDS011;33046;52.270;6.832;2023-05-10T08:35:10;33.72;;;21.85;;
47309;SDS011;33046;52.270;6.832;2023-05-10T08:37:16;33.97;;;22.58;;
47309;SDS011;33046;52.270;6.832;2023-05-10T08:39:23;32.42;;;20.92;;
47309;SDS011;33046;52.270;6.832;2023-05-10T08:41:34;30.67;;;23.70;;
47309;SDS011;33046;52.270;6.832;2023-05-10T08:43:47;33.55;;;23.27;;
47309;SDS011;33046;52.270;6.832;2023-05-10T08:45:54;33.45;;;23.05;;
47309;SDS011;33046;52.270;6.832;2023-05-10T08:48:01;33.38;;;22.08;;
47309;SDS011;33046;52.270;6.832;2023-05-10T08:50:09;29.52;;;20.65;;
47309;SDS011;33046;52.270;6.832;2023-05-10T08:52:17;32.13;;;22.13;;
47309;SDS011;33046;52.270;6.832;2023-05-10T08:54:24;31.80;;;22.23;;
47309;SDS011;33046;52.270;6.832;2023-05-10T08:56:31;30.83;;;21.15;;
47309;SDS011;33046;52.270;6.832;2023-05-10T08:58:38;32.60;;;22.38;;
47309;SDS011;33046;52.270;6.832;2023-05-10T09:00:46;31.10;;;22.40;;
47309;SDS011;33046;52.270;6.832;2023-05-10T09:02:54;29.52;;;20.80;;
47309;SDS011;33046;52.270;6.832;2023-05-10T09:05:01;38.05;;;24.30;;
47309;SDS011;33046;52.270;6.832;2023-05-10T09:07:09;34.42;;;21.08;;
47309;SDS011;33046;52.270;6.832;2023-05-10T09:09:17;32.70;;;22.55;;
47309;SDS011;33046;52.270;6.832;2023-05-10T09:11:24;33.33;;;21.17;;
47309;SDS011;33046;52.270;6.832;2023-05-10T09:13:31;32.83;;;22.52;;
47309;SDS011;33046;52.270;6.832;2023-05-10T09:15:38;31.65;;;21.50;;
47309;SDS011;33046;52.270;6.832;2023-05-10T09:17:46;29.83;;;21.08;;
47309;SDS011;33046;52.270;6.832;2023-05-10T09:19:57;29.52;;;20.55;;
47309;SDS011;33046;52.270;6.832;2023-05-10T09:22:04;29.70;;;20.48;;
47309;SDS011;33046;52.270;6.832;2023-05-10T09:24:11;30.98;;;21.10;;
47309;SDS011;33046;52.270;6.832;2023-05-10T09:26:21;30.30;;;20.27;;
47309;SDS011;33046;52.270;6.832;2023-05-10T09:28:30;29.67;;;20.40;;
47309;SDS011;33046;52.270;6.832;2023-05-10T09:30:38;30.08;;;20.17;;
47309;SDS011;33046;52.270;6.832;2023-05-10T09:32:45;31.30;;;20.27;;
47309;SDS011;33046;52.270;6.832;2023-05-10T09:34:53;27.63;;;19.50;;
47309;SDS011;33046;52.270;6.832;2023-05-10T09:37:01;32.38;;;20.85;;
47309;SDS011;33046;52.270;6.832;2023-05-10T09:39:08;29.60;;;22.08;;
47309;SDS011;33046;52.270;6.832;2023-05-10T09:41:16;31.02;;;21.50;;
47309;SDS011;33046;52.270;6.832;2023-05-10T09:43:23;30.90;;;20.77;;
47309;SDS011;33046;52.270;6.832;2023-05-10T09:45:31;29.58;;;20.02;;
47309;SDS011;33046;52.270;6.832;2023-05-10T09:47:39;29.42;;;20.38;;
47309;SDS011;33046;52.270;6.832;2023-05-10T09:49:50;30.08;;;21.63;;
47309;SDS011;33046;52.270;6.832;2023-05-10T09:51:59;22.50;;;16.30;;
47309;SDS011;33046;52.270;6.832;2023-05-10T09:54:10;21.45;;;15.48;;
47309;SDS011;33046;52.270;6.832;2023-05-10T09:58:40;18.38;;;12.02;;
47309;SDS011;33046;52.270;6.832;2023-05-10T10:00:46;15.18;;;10.20;;
47309;SDS011;33046;52.270;6.832;2023-05-10T10:02:54;13.15;;;9.85;;
47309;SDS011;33046;52.270;6.832;2023-05-10T10:05:05;12.65;;;9.15;;
47309;SDS011;33046;52.270;6.832;2023-05-10T10:07:13;10.10;;;7.60;;
47309;SDS011;33046;52.270;6.832;2023-05-10T10:09:19;10.57;;;8.52;;
47309;SDS011;33046;52.270;6.832;2023-05-10T10:11:26;9.45;;;8.25;;
47309;SDS011;33046;52.270;6.832;2023-05-10T10:13:34;9.02;;;7.47;;
47309;SDS011;33046;52.270;6.832;2023-05-10T10:15:41;11.82;;;8.45;;
47309;SDS011;33046;52.270;6.832;2023-05-10T10:17:48;14.07;;;9.98;;
47309;SDS011;33046;52.270;6.832;2023-05-10T10:19:56;11.25;;;8.25;;
47309;SDS011;33046;52.270;6.832;2023-05-10T10:22:05;11.95;;;10.32;;
47309;SDS011;33046;52.270;6.832;2023-05-10T10:24:11;11.13;;;8.40;;
47309;SDS011;33046;52.270;6.832;2023-05-10T10:26:18;10.02;;;8.98;;
47309;SDS011;33046;52.270;6.832;2023-05-10T10:28:26;11.48;;;9.20;;
47309;SDS011;33046;52.270;6.832;2023-05-10T10:30:42;12.23;;;8.95;;
47309;SDS011;33046;52.270;6.832;2023-05-10T10:33:00;12.73;;;9.95;;
47309;SDS011;33046;52.270;6.832;2023-05-10T10:35:22;14.07;;;9.73;;
47309;SDS011;33046;52.270;6.832;2023-05-10T10:37:42;10.75;;;8.73;;
47309;SDS011;33046;52.270;6.832;2023-05-10T10:39:50;9.98;;;7.70;;
47309;SDS011;33046;52.270;6.832;2023-05-10T10:41:57;8.88;;;7.95;;
47309;SDS011;33046;52.270;6.832;2023-05-10T10:47:00;10.70;;;8.02;;
47309;SDS011;33046;52.270;6.832;2023-05-10T10:49:09;10.38;;;9.13;;
47309;SDS011;33046;52.270;6.832;2023-05-10T10:51:16;10.20;;;8.40;;
47309;SDS011;33046;52.270;6.832;2023-05-10T10:53:26;11.88;;;7.82;;
47309;SDS011;33046;52.270;6.832;2023-05-10T10:55:33;10.65;;;9.05;;
47309;SDS011;33046;52.270;6.832;2023-05-10T10:57:44;11.98;;;9.55;;
47309;SDS011;33046;52.270;6.832;2023-05-10T10:59:58;11.23;;;9.98;;
47309;SDS011;33046;52.270;6.832;2023-05-10T11:02:34;10.48;;;9.48;;
47309;SDS011;33046;52.270;6.832;2023-05-10T11:04:49;9.45;;;8.43;;
47309;SDS011;33046;52.270;6.832;2023-05-10T11:09:25;10.57;;;7.57;;
47309;SDS011;33046;52.270;6.832;2023-05-10T11:11:32;7.97;;;6.30;;
47309;SDS011;33046;52.270;6.832;2023-05-10T11:13:41;7.63;;;6.10;;
47309;SDS011;33046;52.270;6.832;2023-05-10T11:15:49;9.20;;;7.38;;
47309;SDS011;33046;52.270;6.832;2023-05-10T11:17:56;7.85;;;6.60;;
47309;SDS011;33046;52.270;6.832;2023-05-10T11:20:06;13.32;;;8.32;;
47309;SDS011;33046;52.270;6.832;2023-05-10T11:22:13;10.40;;;7.82;;
47309;SDS011;33046;52.270;6.832;2023-05-10T11:24:22;9.70;;;7.40;;
47309;SDS011;33046;52.270;6.832;2023-05-10T11:26:35;8.18;;;6.88;;
47309;SDS011;33046;52.270;6.832;2023-05-10T11:28:42;8.35;;;7.05;;
47309;SDS011;33046;52.270;6.832;2023-05-10T11:30:49;8.85;;;5.80;;
47309;SDS011;33046;52.270;6.832;2023-05-10T11:32:56;7.13;;;6.43;;
47309;SDS011;33046;52.270;6.832;2023-05-10T11:35:06;7.65;;;5.93;;
47309;SDS011;33046;52.270;6.832;2023-05-10T11:37:13;7.10;;;5.65;;
47309;SDS011;33046;52.270;6.832;2023-05-10T11:39:20;6.97;;;5.53;;
47309;SDS011;33046;52.270;6.832;2023-05-10T11:41:28;7.13;;;6.40;;
47309;SDS011;33046;52.270;6.832;2023-05-10T11:43:38;8.02;;;5.70;;
47309;SDS011;33046;52.270;6.832;2023-05-10T11:45:45;6.10;;;5.10;;
47309;SDS011;33046;52.270;6.832;2023-05-10T11:47:52;9.38;;;6.43;;
47309;SDS011;33046;52.270;6.832;2023-05-10T11:49:59;6.50;;;5.28;;
47309;SDS011;33046;52.270;6.832;2023-05-10T11:52:05;7.50;;;5.18;;
47309;SDS011;33046;52.270;6.832;2023-05-10T11:54:13;6.38;;;5.65;;
47309;SDS011;33046;52.270;6.832;2023-05-10T11:56:20;7.28;;;6.47;;
47309;SDS011;33046;52.270;6.832;2023-05-10T11:58:27;6.03;;;5.07;;
47309;SDS011;33046;52.270;6.832;2023-05-10T12:00:35;7.25;;;6.13;;
47309;SDS011;33046;52.270;6.832;2023-05-10T12:02:41;6.88;;;6.10;;
47309;SDS011;33046;52.270;6.832;2023-05-10T12:04:49;10.05;;;6.43;;
47309;SDS011;33046;52.270;6.832;2023-05-10T12:06:56;7.47;;;6.35;;
47309;SDS011;33046;52.270;6.832;2023-05-10T12:09:05;8.10;;;7.30;;
47309;SDS011;33046;52.270;6.832;2023-05-10T12:11:13;10.00;;;7.78;;
47309;SDS011;33046;52.270;6.832;2023-05-10T12:13:20;9.10;;;6.80;;
47309;SDS011;33046;52.270;6.832;2023-05-10T12:15:27;9.13;;;7.40;;
47309;SDS011;33046;52.270;6.832;2023-05-10T12:17:36;10.50;;;7.07;;
47309;SDS011;33046;52.270;6.832;2023-05-10T12:19:43;9.32;;;8.10;;
47309;SDS011;33046;52.270;6.832;2023-05-10T12:21:50;9.20;;;7.45;;
47309;SDS011;33046;52.270;6.832;2023-05-10T12:23:59;10.68;;;7.40;;
47309;SDS011;33046;52.270;6.832;2023-05-10T12:26:08;9.52;;;7.32;;
47309;SDS011;33046;52.270;6.832;2023-05-10T12:28:15;7.53;;;6.78;;
47309;SDS011;33046;52.270;6.832;2023-05-10T12:30:26;10.75;;;7.38;;
47309;SDS011;33046;52.270;6.832;2023-05-10T12:32:39;10.32;;;7.13;;
47309;SDS011;33046;52.270;6.832;2023-05-10T12:34:46;9.30;;;6.60;;
47309;SDS011;33046;52.270;6.832;2023-05-10T12:36:53;8.18;;;6.82;;
47309;SDS011;33046;52.270;6.832;2023-05-10T12:39:02;8.10;;;6.93;;
47309;SDS011;33046;52.270;6.832;2023-05-10T12:41:10;6.28;;;5.68;;
47309;SDS011;33046;52.270;6.832;2023-05-10T12:43:18;7.63;;;5.88;;
47309;SDS011;33046;52.270;6.832;2023-05-10T12:45:24;9.23;;;6.80;;
47309;SDS011;33046;52.270;6.832;2023-05-10T12:47:31;8.20;;;5.68;;
47309;SDS011;33046;52.270;6.832;2023-05-10T12:49:40;7.97;;;6.35;;
47309;SDS011;33046;52.270;6.832;2023-05-10T12:51:47;7.95;;;7.15;;
47309;SDS011;33046;52.270;6.832;2023-05-10T12:53:53;7.07;;;6.30;;